Norton Bay — WDC2922 — position and weather

sailwx.info

Track history (hours):
 
Tides and Currents Weather Stations Pressure Air Temp Water Temp Dewpoint Dewpoint Depression Visibility Wind Speed Wind Dir Waves Ship Positions

Norton Bay

Owner: Campbell Towing & Marine Construction Co., Astoria, OR. More information available from US FCC via Universal Licensing System and Coast Guard Vessel Documentation Center.

Last reported at 2017-Nov-19 05:00 UTC. Time now 2017-Nov-19 05:08 UTC.
Position N 46°06' W 122°56'.

Length 23 m; draft 8 m.

Type: Tug. MMSI: 232782112.

Date/timePositionNaut miles runAvg speedWind from/ knotsBaromVisibWave heightAir tempDewpointWater temp
2017-Nov-19 05:00N 46°06' W 122°56'3 6.1
2017-Nov-19 04:30N 46°08' W 122°60'3 6.4
2017-Nov-19 04:00N 46°09' W 123°03'3 6.6
2017-Nov-19 03:31N 46°11' W 123°08'3 5.6
2017-Nov-19 03:01N 46°10' W 123°04'5 9.1
2017-Nov-19 02:30N 46°07' W 122°59'2 4.8
2017-Nov-19 02:01N 46°06' W 122°56'1 1.5
2017-Nov-19 01:31N 46°06' W 122°55'0 0.0
2017-Nov-19 01:00N 46°06' W 122°55'0 0.0
2017-Nov-19 00:30N 46°06' W 122°55'0 0.0
2017-Nov-19 00:00N 46°06' W 122°55'0 0.0
2017-Nov-18 23:31N 46°06' W 122°55'0 0.0
2017-Nov-18 23:01N 46°06' W 122°55'0 0.0
2017-Nov-18 22:30N 46°06' W 122°55'1 1.3
2017-Nov-18 22:00N 46°06' W 122°55'2 3.5
2017-Nov-18 21:31N 46°06' W 122°58'4 8.4
2017-Nov-18 21:01N 46°09' W 123°03'4 8.1
2017-Nov-18 20:30N 46°11' W 123°08'3 5.3
2017-Nov-18 20:00N 46°10' W 123°04'4 8.4
2017-Nov-18 19:31N 46°07' W 122°59'3 5.9
2017-Nov-18 19:01N 46°06' W 122°56'0 0.0
2017-Nov-18 18:31N 46°06' W 122°56'0 0.0
2017-Nov-18 18:00N 46°06' W 122°56'0 0.0
2017-Nov-18 17:31N 46°06' W 122°56'0 0.1
2017-Nov-18 17:00N 46°06' W 122°56'0 0.3
2017-Nov-18 16:30N 46°06' W 122°56'0 0.0
2017-Nov-18 16:01N 46°06' W 122°56'0 0.0
2017-Nov-18 15:30N 46°06' W 122°56'0 0.0
2017-Nov-18 15:01N 46°06' W 122°56'3 5.5
2017-Nov-18 14:30N 46°07' W 122°59'3 6.5
2017-Nov-18 14:00N 46°09' W 123°03'3 6.7
2017-Nov-18 13:29N 46°11' W 123°07'3 4.0
2017-Nov-18 12:50N 46°10' W 123°04'3 8.3
2017-Nov-18 12:31N 46°08' W 123°01'4 7.7
2017-Nov-18 11:58N 46°06' W 122°56'0 0.5
2017-Nov-18 11:30N 46°06' W 122°56'0 0.0
2017-Nov-18 11:01N 46°06' W 122°56'0 0.0
2017-Nov-18 10:30N 46°06' W 122°56'0 0.0
2017-Nov-18 10:01N 46°06' W 122°56'0 0.0
2017-Nov-18 09:31N 46°06' W 122°56'0 0.0
2017-Nov-18 09:01N 46°06' W 122°56'0 0.4
2017-Nov-18 08:31N 46°06' W 122°56'3 6.9
2017-Nov-18 08:00N 46°08' W 123°00'3 6.7
2017-Nov-18 07:30N 46°10' W 123°04'3 5.7
2017-Nov-18 07:00N 46°11' W 123°08'4 8.4
2017-Nov-18 06:30N 46°09' W 123°02'5 9.7
2017-Nov-18 06:00N 46°06' W 122°57'1 1.7
2017-Nov-18 05:30N 46°06' W 122°56'0 0.1
2017-Nov-18 05:00N 46°06' W 122°56'0 0.0
2017-Nov-18 04:30N 46°06' W 122°56'0 0.0
2017-Nov-18 04:01N 46°06' W 122°56'0 0.0
2017-Nov-18 03:30N 46°06' W 122°56'0 0.0
2017-Nov-18 03:00N 46°06' W 122°56'0 0.0
2017-Nov-18 02:30N 46°06' W 122°56'0 0.0
2017-Nov-18 02:00N 46°06' W 122°56'0 0.1
2017-Nov-18 01:15N 46°06' W 122°56'3 6.5
2017-Nov-18 00:47N 46°07' W 122°59'4 7.3
2017-Nov-18 00:16N 46°09' W 123°04'2 7.6
2017-Nov-18 00:01N 46°10' W 123°06'0 0.1
2017-Nov-17 23:30N 46°10' W 123°06'4 8.0
2017-Nov-17 23:01N 46°08' W 123°01'4 7.5
2017-Nov-17 22:30N 46°06' W 122°57'1 2.4
2017-Nov-17 22:01N 46°06' W 122°56'1 1.6
2017-Nov-17 21:31N 46°06' W 122°55'0 0.0
2017-Nov-17 21:01N 46°06' W 122°55'0 0.0
2017-Nov-17 20:31N 46°06' W 122°55'0 0.0
2017-Nov-17 20:01N 46°06' W 122°55'0 0.0
2017-Nov-17 19:30N 46°06' W 122°55'0 0.0
2017-Nov-17 19:00N 46°06' W 122°55'0 0.0
2017-Nov-17 18:31N 46°06' W 122°55'0 0.3
2017-Nov-17 18:00N 46°06' W 122°55'1 2.3
2017-Nov-17 17:31N 46°06' W 122°56'3 6.4
2017-Nov-17 17:00N 46°08' W 123°00'3 6.1
2017-Nov-17 16:30N 46°09' W 123°04'3 6.0
2017-Nov-17 16:01N 46°11' W 123°08'3 5.0
2017-Nov-17 15:31N 46°10' W 123°04'6 8.8
2017-Nov-17 14:48N 46°06' W 122°57'1 1.9
2017-Nov-17 14:15N 46°06' W 122°56'0 0.0
2017-Nov-17 14:00N 46°06' W 122°56'0 0.0
2017-Nov-17 13:30N 46°06' W 122°56'0 0.1
2017-Nov-17 12:59N 46°06' W 122°56'0 0.0
2017-Nov-17 12:30N 46°06' W 122°56'0 0.0
2017-Nov-17 12:00N 46°06' W 122°56'0 0.0
2017-Nov-17 11:30N 46°06' W 122°56'0 0.0
2017-Nov-17 11:01N 46°06' W 122°56'4 5.6
2017-Nov-17 10:17N 46°08' W 123°01'2 7.8
2017-Nov-17 10:01N 46°09' W 123°03'4 7.0
2017-Nov-17 09:31N 46°11' W 123°08'3 5.2
2017-Nov-17 08:52N 46°09' W 123°03'3 7.5
2017-Nov-17 08:30N 46°08' W 123°00'4 7.3
2017-Nov-17 08:01N 46°06' W 122°56'0 0.2
2017-Nov-17 07:31N 46°06' W 122°56'0 0.0
2017-Nov-17 07:00N 46°06' W 122°56'0 0.0
2017-Nov-17 06:30N 46°06' W 122°56'0 0.0
2017-Nov-17 06:00N 46°06' W 122°56'0 0.0
2017-Nov-17 05:30N 46°06' W 122°56'0 0.0
2017-Nov-17 05:00N 46°06' W 122°56'0 0.1
2017-Nov-17 04:31N 46°06' W 122°56'0 0.0
2017-Nov-17 04:01N 46°06' W 122°56'0 0.0
2017-Nov-17 03:28N 46°06' W 122°56'0 0.0
2017-Nov-17 03:00N 46°06' W 122°56'1 1.2
2017-Nov-17 02:30N 46°06' W 122°57'3 6.8
2017-Nov-17 02:00N 46°08' W 123°00'3 6.7
2017-Nov-17 01:30N 46°10' W 123°05'2 4.7
2017-Nov-17 01:01N 46°11' W 123°08'4 8.9
2017-Nov-17 00:30N 46°09' W 123°02'4 8.7
2017-Nov-17 00:00N 46°06' W 122°57'1 2.8
2017-Nov-16 23:31N 46°06' W 122°55'0 0.6
2017-Nov-16 23:01N 46°06' W 122°55'0 0.0
2017-Nov-16 22:31N 46°06' W 122°55'0 0.0
2017-Nov-16 22:00N 46°06' W 122°55'0 0.0
2017-Nov-16 21:30N 46°06' W 122°55'0 0.0
2017-Nov-16 21:00N 46°06' W 122°55'1 1.9
2017-Nov-16 20:31N 46°06' W 122°56'4 7.1
2017-Nov-16 20:01N 46°08' W 123°00'4 8.5
2017-Nov-16 19:30N 46°10' W 123°05'2 3.1
2017-Nov-16 19:00N 46°11' W 123°07'4 7.6
2017-Nov-16 18:30N 46°09' W 123°02'4 8.4
2017-Nov-16 18:00N 46°06' W 122°58'1 2.8
2017-Nov-16 17:30N 46°06' W 122°56'0 0.1
2017-Nov-16 17:01N 46°06' W 122°56'0 0.1
2017-Nov-16 16:30N 46°06' W 122°56'0 0.0
2017-Nov-16 16:00N 46°06' W 122°56'0 0.0
2017-Nov-16 15:30N 46°06' W 122°56'0 0.0
2017-Nov-16 15:00N 46°06' W 122°56'0 0.0
2017-Nov-16 14:30N 46°06' W 122°56'0 0.0
2017-Nov-16 14:00N 46°06' W 122°56'3 5.6
2017-Nov-16 13:30N 46°07' W 122°59'3 6.5
2017-Nov-16 13:00N 46°09' W 123°03'3 6.7
2017-Nov-16 12:31N 46°11' W 123°07'1 2.6
2017-Nov-16 12:00N 46°10' W 123°06'4 7.9
2017-Nov-16 11:30N 46°08' W 123°01'4 6.6
2017-Nov-16 10:53N 46°06' W 122°56'0 0.2
2017-Nov-16 10:30N 46°06' W 122°56'0 0.0
2017-Nov-16 10:00N 46°06' W 122°56'0 0.0
2017-Nov-16 09:30N 46°06' W 122°56'0 0.1
2017-Nov-16 09:00N 46°06' W 122°56'0 0.0
2017-Nov-16 08:31N 46°06' W 122°56'0 0.3
2017-Nov-16 08:00N 46°06' W 122°56'0 0.0
2017-Nov-16 07:30N 46°06' W 122°56'0 0.1
2017-Nov-16 07:00N 46°06' W 122°56'0 0.0
2017-Nov-16 06:30N 46°06' W 122°56'0 0.0
2017-Nov-16 06:00N 46°06' W 122°56'2 5.0
2017-Nov-16 05:30N 46°07' W 122°59'3 6.6
2017-Nov-16 05:01N 46°09' W 123°03'3 6.7
2017-Nov-16 04:30N 46°11' W 123°07'1 3.0
2017-Nov-16 04:00N 46°10' W 123°05'5 9.6
2017-Nov-16 03:30N 46°07' W 122°59'3 5.7
2017-Nov-16 03:00N 46°06' W 122°56'0 0.0
2017-Nov-16 02:30N 46°06' W 122°56'0 0.0
2017-Nov-16 02:00N 46°06' W 122°56'0 0.0
2017-Nov-16 01:30N 46°06' W 122°56'0 0.0
2017-Nov-16 01:01N 46°06' W 122°56'0 0.0
2017-Nov-16 00:30N 46°06' W 122°56'0 0.1
2017-Nov-16 00:00N 46°06' W 122°56'0 0.9
2017-Nov-15 23:30N 46°06' W 122°56'4 8.0
2017-Nov-15 23:00N 46°08' W 123°01'4 8.3
2017-Nov-15 22:30N 46°10' W 123°06'0 0.1
2017-Nov-15 22:01N 46°10' W 123°06'4 7.1
2017-Nov-15 21:29N 46°08' W 123°02'3 7.0
2017-Nov-15 21:01N 46°06' W 122°58'2 3.0
2017-Nov-15 20:30N 46°06' W 122°56'0 0.0
2017-Nov-15 20:00N 46°06' W 122°56'0 0.0
2017-Nov-15 19:20N 46°06' W 122°56'0 0.0
2017-Nov-15 18:53N 46°06' W 122°56'0 0.0
2017-Nov-15 18:30N 46°06' W 122°56'0 0.0
2017-Nov-15 18:00N 46°06' W 122°56'0 0.0
2017-Nov-15 17:29N 46°06' W 122°56'0 0.0
2017-Nov-15 16:59N 46°06' W 122°56'2 4.6
2017-Nov-15 16:26N 46°07' W 122°59'3 6.6
2017-Nov-15 16:00N 46°09' W 123°02'3 6.7
2017-Nov-15 15:30N 46°10' W 123°06'0 0.8
2017-Nov-15 15:00N 46°10' W 123°06'5 9.6
2017-Nov-15 14:31N 46°08' W 122°60'3 6.9
2017-Nov-15 14:01N 46°06' W 122°56'0 0.0
2017-Nov-15 13:30N 46°06' W 122°56'0 0.0
2017-Nov-15 13:00N 46°06' W 122°56'0 0.0
2017-Nov-15 12:29N 46°06' W 122°56'0 0.0
2017-Nov-15 12:01N 46°06' W 122°56'0 0.0
2017-Nov-15 11:31N 46°06' W 122°56'0 0.0
2017-Nov-15 11:01N 46°06' W 122°56'0 0.0
2017-Nov-15 10:30N 46°06' W 122°56'0 0.0
2017-Nov-15 10:00N 46°06' W 122°56'0 0.0
2017-Nov-15 09:31N 46°06' W 122°56'0 0.0
2017-Nov-15 09:00N 46°06' W 122°56'1 1.3
2017-Nov-15 08:30N 46°06' W 122°57'4 8.5
2017-Nov-15 08:00N 46°09' W 123°02'4 8.6
2017-Nov-15 07:31N 46°11' W 123°07'2 3.1
2017-Nov-15 06:57N 46°10' W 123°05'4 8.1
2017-Nov-15 06:31N 46°08' W 123°00'4 7.7
2017-Nov-15 06:01N 46°06' W 122°56'0 0.2
2017-Nov-15 05:31N 46°06' W 122°56'0 0.1
2017-Nov-15 05:00N 46°06' W 122°56'0 0.0
2017-Nov-15 04:31N 46°06' W 122°56'0 0.0
2017-Nov-15 04:00N 46°06' W 122°56'0 0.0
2017-Nov-15 03:30N 46°06' W 122°56'0 0.2
2017-Nov-15 03:01N 46°06' W 122°56'5 6.1
2017-Nov-15 02:16N 46°08' W 123°01'2 6.4
2017-Nov-15 02:01N 46°09' W 123°03'3 6.7
2017-Nov-15 01:30N 46°11' W 123°07'3 6.0
2017-Nov-15 01:00N 46°09' W 123°04'5 9.3
2017-Nov-15 00:30N 46°07' W 122°58'2 3.9
2017-Nov-15 00:00N 46°06' W 122°56'0 0.0
2017-Nov-14 23:30N 46°06' W 122°56'0 0.0
2017-Nov-14 23:00N 46°06' W 122°56'0 0.0
2017-Nov-14 22:30N 46°06' W 122°56'0 0.0
2017-Nov-14 22:00N 46°06' W 122°56'0 0.7
2017-Nov-14 21:30N 46°06' W 122°56'4 8.8
2017-Nov-14 21:00N 46°08' W 123°01'4 9.0
2017-Nov-14 20:30N 46°11' W 123°07'1 1.8
2017-Nov-14 20:01N 46°10' W 123°06'3 6.6
2017-Nov-14 19:30N 46°09' W 123°02'3 7.0
2017-Nov-14 19:01N 46°06' W 122°58'2 3.1
2017-Nov-14 18:30N 46°06' W 122°56'0 0.0
2017-Nov-14 18:00N 46°06' W 122°56'0 0.0
2017-Nov-14 17:31N 46°06' W 122°56'0 0.0
2017-Nov-14 17:01N 46°06' W 122°56'0 0.0
2017-Nov-14 16:30N 46°06' W 122°56'0 0.0
2017-Nov-14 16:01N 46°06' W 122°56'1 1.1
2017-Nov-14 15:30N 46°06' W 122°57'3 6.2
2017-Nov-14 15:00N 46°08' W 123°00'3 5.9
2017-Nov-14 14:30N 46°09' W 123°04'3 4.3
2017-Nov-14 13:48N 46°11' W 123°07'2 8.1
2017-Nov-14 13:30N 46°10' W 123°05'4 8.9
2017-Nov-14 13:00N 46°07' W 122°59'3 5.6
2017-Nov-14 12:30N 46°06' W 122°56'0 0.0
2017-Nov-14 12:00N 46°06' W 122°56'0 0.1
2017-Nov-14 11:30N 46°06' W 122°56'0 0.0
2017-Nov-14 11:00N 46°06' W 122°56'0 0.0
2017-Nov-14 10:31N 46°06' W 122°56'0 0.8
2017-Nov-14 10:00N 46°06' W 122°56'3 6.9
2017-Nov-14 09:30N 46°08' W 123°00'4 3.9
2017-Nov-14 08:24N 46°10' W 123°06'3 7.9
2017-Nov-14 08:00N 46°09' W 123°02'4 7.6
2017-Nov-14 07:30N 46°06' W 122°58'1 2.6
2017-Nov-14 07:00N 46°06' W 122°56'0 0.0
2017-Nov-14 06:30N 46°06' W 122°56'0 0.0
2017-Nov-14 06:00N 46°06' W 122°56'0 0.0
2017-Nov-14 05:30N 46°06' W 122°56'0 0.0
2017-Nov-14 05:00N 46°06' W 122°56'2 3.6
2017-Nov-14 04:30N 46°06' W 122°58'3 7.0
2017-Nov-14 04:00N 46°09' W 123°02'3 6.9
2017-Nov-14 03:31N 46°11' W 123°06'1 1.6
2017-Nov-14 03:00N 46°10' W 123°05'5 9.4
2017-Nov-14 02:30N 46°08' W 122°60'3 6.4
2017-Nov-14 02:00N 46°06' W 122°56'0 0.0
2017-Nov-14 01:31N 46°06' W 122°56'0 0.0
2017-Nov-14 01:00N 46°06' W 122°56'0 0.0
2017-Nov-14 00:31N 46°06' W 122°56'0 0.0
2017-Nov-14 00:00N 46°06' W 122°56'2 3.2
2017-Nov-13 23:30N 46°06' W 122°58'4 7.3
2017-Nov-13 23:00N 46°09' W 123°02'4 7.5
2017-Nov-13 22:30N 46°11' W 123°07'1 2.5
2017-Nov-13 21:58N 46°10' W 123°05'1 0.1
2017-Nov-13 02:00N 46°11' W 123°07'1 3.0
2017-Nov-13 01:30N 46°10' W 123°05'510.0
2017-Nov-13 01:00N 46°07' W 122°59'3 5.2
2017-Nov-13 00:31N 46°06' W 122°56'0 0.0
2017-Nov-13 00:00N 46°06' W 122°56'0 0.0
2017-Nov-12 23:30N 46°06' W 122°56'0 0.0
2017-Nov-12 23:00N 46°06' W 122°56'0 0.0
2017-Nov-12 22:31N 46°06' W 122°56'2 4.7
2017-Nov-12 22:00N 46°07' W 122°59'4 7.3
2017-Nov-12 21:31N 46°09' W 123°03'4 7.2
2017-Nov-12 20:57N 46°11' W 123°08'3 7.3
2017-Nov-12 20:30N 46°09' W 123°04'4 7.8
2017-Nov-12 20:01N 46°07' W 122°59'3 5.5
2017-Nov-12 19:31N 46°06' W 122°56'0 0.0
2017-Nov-12 19:01N 46°06' W 122°56'0 0.0
2017-Nov-12 18:30N 46°06' W 122°56'0 0.0
2017-Nov-12 18:00N 46°06' W 122°56'1 1.0
2017-Nov-12 17:31N 46°06' W 122°56'4 8.7
2017-Nov-12 17:00N 46°08' W 123°02'4 8.9
2017-Nov-12 16:30N 46°11' W 123°07'3 5.1
2017-Nov-12 16:01N 46°10' W 123°04'4 8.5
2017-Nov-12 15:30N 46°07' W 122°59'2 4.9
2017-Nov-12 15:00N 46°06' W 122°56'0 0.0
2017-Nov-12 14:30N 46°06' W 122°56'0 0.0
2017-Nov-12 14:01N 46°06' W 122°56'0 0.0
2017-Nov-12 13:30N 46°06' W 122°56'1 2.5
2017-Nov-12 13:01N 46°06' W 122°57'3 6.6
2017-Nov-12 12:30N 46°08' W 123°01'3 6.5
2017-Nov-12 12:00N 46°10' W 123°05'1 2.4
2017-Nov-12 11:30N 46°11' W 123°07'917.0
2017-Nov-12 11:00N 46°06' W 122°56'1 1.0
2017-Nov-12 10:31N 46°06' W 122°56'0 0.0
2017-Nov-12 10:00N 46°06' W 122°56'0 0.0
2017-Nov-12 09:30N 46°06' W 122°56'0 0.0
2017-Nov-12 09:01N 46°06' W 122°56'3 6.1
2017-Nov-12 08:30N 46°07' W 122°59'4 7.3
2017-Nov-12 07:56N 46°10' W 123°05'2 5.9
2017-Nov-12 07:31N 46°11' W 123°08'4 7.5
2017-Nov-12 07:01N 46°09' W 123°03'4 8.1
2017-Nov-12 06:30N 46°07' W 122°58'2 3.8
2017-Nov-12 06:00N 46°06' W 122°56'0 0.1
2017-Nov-12 05:30N 46°06' W 122°56'0 0.0
2017-Nov-12 05:00N 46°06' W 122°56'0 0.0
2017-Nov-12 04:30N 46°06' W 122°56'0 0.0
2017-Nov-12 04:00N 46°06' W 122°56'0 0.0
2017-Nov-12 03:31N 46°06' W 122°56'0 0.1
2017-Nov-12 03:00N 46°06' W 122°56'4 7.2
2017-Nov-12 02:30N 46°08' W 123°00'4 7.6
2017-Nov-12 02:01N 46°10' W 123°05'2 3.9
2017-Nov-12 01:31N 46°11' W 123°07'5 9.5
2017-Nov-12 01:00N 46°08' W 123°01'5 9.1
2017-Nov-12 00:31N 46°06' W 122°56'0 0.3
2017-Nov-12 00:00N 46°06' W 122°56'0 0.0
2017-Nov-11 23:30N 46°06' W 122°56'0 0.0
2017-Nov-11 23:00N 46°06' W 122°56'0 0.0
2017-Nov-11 22:30N 46°06' W 122°56'0 0.5
2017-Nov-11 22:00N 46°06' W 122°56'4 7.1
2017-Nov-11 21:30N 46°08' W 123°00'4 7.1
2017-Nov-11 21:01N 46°10' W 123°05'2 4.1
2017-Nov-11 20:30N 46°11' W 123°07'5 9.0
2017-Nov-11 20:00N 46°08' W 123°02'4 8.7
2017-Nov-11 19:30N 46°06' W 122°57'1 1.2
2017-Nov-11 19:00N 46°06' W 122°56'0 0.0
2017-Nov-11 18:30N 46°06' W 122°56'0 0.0
2017-Nov-11 18:01N 46°06' W 122°56'0 0.6
2017-Nov-11 17:30N 46°06' W 122°56'4 8.6
2017-Nov-11 17:01N 46°08' W 123°01'4 8.9
2017-Nov-11 16:31N 46°11' W 123°07'2 4.6
2017-Nov-11 16:00N 46°09' W 123°04'4 8.4
2017-Nov-11 15:30N 46°07' W 122°59'3 3.6
2017-Nov-11 14:48N 46°06' W 122°56'0 0.0
2017-Nov-11 14:22N 46°06' W 122°56'0 0.0
2017-Nov-11 14:01N 46°06' W 122°56'0 0.0
2017-Nov-11 13:30N 46°06' W 122°56'0 0.0
2017-Nov-11 13:00N 46°06' W 122°56'0 0.2
2017-Nov-11 12:30N 46°06' W 122°56'0 0.1
2017-Nov-11 12:01N 46°06' W 122°56'3 6.3
2017-Nov-11 11:30N 46°08' W 122°60'3 6.6
2017-Nov-11 11:01N 46°09' W 123°03'3 6.5
2017-Nov-11 10:30N 46°11' W 123°08'4 7.9
2017-Nov-11 10:00N 46°09' W 123°03'5 9.9
2017-Nov-11 09:31N 46°06' W 122°57'1 1.3
2017-Nov-11 08:45N 46°06' W 122°56'0 0.0
2017-Nov-11 08:31N 46°06' W 122°56'0 0.1
2017-Nov-11 08:00N 46°06' W 122°56'0 0.0
2017-Nov-11 07:31N 46°06' W 122°56'0 0.1
2017-Nov-11 07:01N 46°06' W 122°56'3 6.6
2017-Nov-11 06:30N 46°08' W 122°60'4 7.7
2017-Nov-11 05:56N 46°10' W 123°05'2 4.7
2017-Nov-11 05:30N 46°11' W 123°08'4 7.3
2017-Nov-11 05:00N 46°09' W 123°03'4 7.6
2017-Nov-11 04:31N 46°07' W 122°59'2 4.6
2017-Nov-11 04:01N 46°06' W 122°56'0 0.0
2017-Nov-11 03:31N 46°06' W 122°56'0 0.0
2017-Nov-11 03:01N 46°06' W 122°56'0 0.0
2017-Nov-11 02:30N 46°06' W 122°56'0 0.0
2017-Nov-11 02:01N 46°06' W 122°56'0 0.0
2017-Nov-11 01:30N 46°06' W 122°56'0 0.6
2017-Nov-11 01:00N 46°06' W 122°56'4 7.5
2017-Nov-11 00:30N 46°08' W 123°01'4 7.3
2017-Nov-11 00:01N 46°10' W 123°05'2 4.1
2017-Nov-10 23:30N 46°11' W 123°08'5 9.5
2017-Nov-10 23:01N 46°09' W 123°02'5 9.7
2017-Nov-10 22:31N 46°06' W 122°56'0 0.4
2017-Nov-10 22:00N 46°06' W 122°56'0 0.0
2017-Nov-10 21:30N 46°06' W 122°56'0 0.0
2017-Nov-10 21:01N 46°06' W 122°56'0 0.0
2017-Nov-10 20:30N 46°06' W 122°56'1 2.6
2017-Nov-10 20:01N 46°06' W 122°58'4 7.2
2017-Nov-10 19:31N 46°09' W 123°02'4 7.6
2017-Nov-10 19:00N 46°10' W 123°06'1 2.3
2017-Nov-10 18:30N 46°10' W 123°05'4 8.0
2017-Nov-10 18:00N 46°08' W 122°60'3 7.0
2017-Nov-10 17:30N 46°06' W 122°56'0 0.2
2017-Nov-10 17:00N 46°06' W 122°56'0 0.0
2017-Nov-10 16:30N 46°06' W 122°56'0 0.0
2017-Nov-10 16:00N 46°06' W 122°56'0 0.0
2017-Nov-10 15:30N 46°06' W 122°56'0 0.2
2017-Nov-10 15:01N 46°06' W 122°56'4 8.0
2017-Nov-10 14:30N 46°08' W 123°01'4 7.7
2017-Nov-10 14:01N 46°10' W 123°05'0 0.7
2017-Nov-10 13:30N 46°10' W 123°06'5 9.2
2017-Nov-10 13:00N 46°08' W 123°00'4 7.2
2017-Nov-10 12:30N 46°06' W 122°56'0 0.0
2017-Nov-10 12:01N 46°06' W 122°56'0 0.0
2017-Nov-10 11:30N 46°06' W 122°56'0 0.0
2017-Nov-10 11:00N 46°06' W 122°56'0 0.0
2017-Nov-10 10:30N 46°06' W 122°56'3 4.1
2017-Nov-10 09:42N 46°08' W 122°60'1 6.2
2017-Nov-10 09:30N 46°08' W 123°01'3 6.3
2017-Nov-10 09:00N 46°10' W 123°05'1 2.9
2017-Nov-10 08:31N 46°11' W 123°07'5 9.6
2017-Nov-10 08:00N 46°08' W 123°01'4 8.6
2017-Nov-10 07:30N 46°06' W 122°56'0 0.2
2017-Nov-10 07:00N 46°06' W 122°56'0 0.0
2017-Nov-10 06:30N 46°06' W 122°56'0 0.1
2017-Nov-10 06:01N 46°06' W 122°56'0 0.1
2017-Nov-10 05:30N 46°06' W 122°56'0 0.0
2017-Nov-10 05:00N 46°06' W 122°56'0 0.0
2017-Nov-10 04:30N 46°06' W 122°56'0 0.1
2017-Nov-10 04:00N 46°06' W 122°56'6 8.4
2017-Nov-10 03:16N 46°09' W 123°03'2 9.3
2017-Nov-10 03:00N 46°11' W 123°06'3 3.3
2017-Nov-10 02:11N 46°09' W 123°03'1 7.0
2017-Nov-10 02:01N 46°08' W 123°01'4 6.9
2017-Nov-10 01:30N 46°06' W 122°57'1 2.5
2017-Nov-10 01:01N 46°06' W 122°56'0 0.0
2017-Nov-10 00:30N 46°06' W 122°56'0 0.0
2017-Nov-10 00:00N 46°06' W 122°56'0 0.0
2017-Nov-09 23:30N 46°06' W 122°56'0 0.0
2017-Nov-09 23:01N 46°06' W 122°56'0 0.0
2017-Nov-09 22:29N 46°06' W 122°56'2 4.1
2017-Nov-09 22:00N 46°07' W 122°58'3 7.0
2017-Nov-09 21:30N 46°09' W 123°02'4 7.1
2017-Nov-09 21:00N 46°11' W 123°07'1 2.9
2017-Nov-09 20:30N 46°10' W 123°05'5 9.7
2017-Nov-09 20:00N 46°07' W 122°59'3 5.3
2017-Nov-09 19:30N 46°06' W 122°56'0 0.0
2017-Nov-09 19:00N 46°06' W 122°56'0 0.0
2017-Nov-09 18:30N 46°06' W 122°56'0 0.0
2017-Nov-09 18:01N 46°06' W 122°56'0 0.0
2017-Nov-09 17:30N 46°06' W 122°56'0 0.0
2017-Nov-09 17:01N 46°06' W 122°56'0 0.0
2017-Nov-09 16:31N 46°06' W 122°56'3 5.1
2017-Nov-09 16:00N 46°07' W 122°59'4 8.8
2017-Nov-09 15:30N 46°10' W 123°04'2 4.8
2017-Nov-09 15:00N 46°11' W 123°07'4 7.0
2017-Nov-09 14:30N 46°09' W 123°03'4 7.2
2017-Nov-09 14:00N 46°07' W 122°59'2 4.6
2017-Nov-09 13:30N 46°06' W 122°56'0 0.0
2017-Nov-09 13:00N 46°06' W 122°56'0 0.0
2017-Nov-09 12:23N 46°06' W 122°56'0 0.0
2017-Nov-09 12:01N 46°06' W 122°56'0 0.0
2017-Nov-09 11:21N 46°06' W 122°56'0 0.2
2017-Nov-09 11:01N 46°06' W 122°56'3 6.4
2017-Nov-09 10:31N 46°08' W 122°60'3 6.3
2017-Nov-09 10:01N 46°09' W 123°03'3 6.5
2017-Nov-09 09:30N 46°11' W 123°08'4 8.3
2017-Nov-09 09:01N 46°09' W 123°02'5 9.5
2017-Nov-09 08:30N 46°06' W 122°57'1 1.7
2017-Nov-09 08:01N 46°06' W 122°56'0 0.0
2017-Nov-09 07:31N 46°06' W 122°56'0 0.2
2017-Nov-09 07:00N 46°06' W 122°56'0 0.2
2017-Nov-09 06:30N 46°06' W 122°56'0 0.0
2017-Nov-09 05:53N 46°06' W 122°56'0 0.0
2017-Nov-09 05:30N 46°06' W 122°56'  
Track history (hours):
 
Tides and Currents Weather Stations Pressure Air Temp Water Temp Dewpoint Dewpoint Depression Visibility Wind Speed Wind Dir Waves Ship Positions

Norton Bay

Owner: Campbell Towing & Marine Construction Co., Astoria, OR. More information available from US FCC via Universal Licensing System and Coast Guard Vessel Documentation Center.

Last reported at 2017-Nov-19 05:00 UTC. Time now 2017-Nov-19 05:08 UTC.
Position N 46°06' W 122°56'.

Length 23 m; draft 8 m.

Type: Tug. MMSI: 232782112.

Date/timePositionNaut miles runAvg speedWind from/ knotsBaromVisibWave heightAir tempDewpointWater temp
2017-Nov-19 05:00N 46°06' W 122°56'3 6.1
2017-Nov-19 04:30N 46°08' W 122°60'3 6.4
2017-Nov-19 04:00N 46°09' W 123°03'3 6.6
2017-Nov-19 03:31N 46°11' W 123°08'3 5.6
2017-Nov-19 03:01N 46°10' W 123°04'5 9.1
2017-Nov-19 02:30N 46°07' W 122°59'2 4.8
2017-Nov-19 02:01N 46°06' W 122°56'1 1.5
2017-Nov-19 01:31N 46°06' W 122°55'0 0.0
2017-Nov-19 01:00N 46°06' W 122°55'0 0.0
2017-Nov-19 00:30N 46°06' W 122°55'0 0.0
2017-Nov-19 00:00N 46°06' W 122°55'0 0.0
2017-Nov-18 23:31N 46°06' W 122°55'0 0.0
2017-Nov-18 23:01N 46°06' W 122°55'0 0.0
2017-Nov-18 22:30N 46°06' W 122°55'1 1.3
2017-Nov-18 22:00N 46°06' W 122°55'2 3.5
2017-Nov-18 21:31N 46°06' W 122°58'4 8.4
2017-Nov-18 21:01N 46°09' W 123°03'4 8.1
2017-Nov-18 20:30N 46°11' W 123°08'3 5.3
2017-Nov-18 20:00N 46°10' W 123°04'4 8.4
2017-Nov-18 19:31N 46°07' W 122°59'3 5.9
2017-Nov-18 19:01N 46°06' W 122°56'0 0.0
2017-Nov-18 18:31N 46°06' W 122°56'0 0.0
2017-Nov-18 18:00N 46°06' W 122°56'0 0.0
2017-Nov-18 17:31N 46°06' W 122°56'0 0.1
2017-Nov-18 17:00N 46°06' W 122°56'0 0.3
2017-Nov-18 16:30N 46°06' W 122°56'0 0.0
2017-Nov-18 16:01N 46°06' W 122°56'0 0.0
2017-Nov-18 15:30N 46°06' W 122°56'0 0.0
2017-Nov-18 15:01N 46°06' W 122°56'3 5.5
2017-Nov-18 14:30N 46°07' W 122°59'3 6.5
2017-Nov-18 14:00N 46°09' W 123°03'3 6.7
2017-Nov-18 13:29N 46°11' W 123°07'3 4.0
2017-Nov-18 12:50N 46°10' W 123°04'3 8.3
2017-Nov-18 12:31N 46°08' W 123°01'4 7.7
2017-Nov-18 11:58N 46°06' W 122°56'0 0.5
2017-Nov-18 11:30N 46°06' W 122°56'0 0.0
2017-Nov-18 11:01N 46°06' W 122°56'0 0.0
2017-Nov-18 10:30N 46°06' W 122°56'0 0.0
2017-Nov-18 10:01N 46°06' W 122°56'0 0.0
2017-Nov-18 09:31N 46°06' W 122°56'0 0.0
2017-Nov-18 09:01N 46°06' W 122°56'0 0.4
2017-Nov-18 08:31N 46°06' W 122°56'3 6.9
2017-Nov-18 08:00N 46°08' W 123°00'3 6.7
2017-Nov-18 07:30N 46°10' W 123°04'3 5.7
2017-Nov-18 07:00N 46°11' W 123°08'4 8.4
2017-Nov-18 06:30N 46°09' W 123°02'5 9.7
2017-Nov-18 06:00N 46°06' W 122°57'1 1.7
2017-Nov-18 05:30N 46°06' W 122°56'0 0.1
2017-Nov-18 05:00N 46°06' W 122°56'0 0.0
2017-Nov-18 04:30N 46°06' W 122°56'0 0.0
2017-Nov-18 04:01N 46°06' W 122°56'0 0.0
2017-Nov-18 03:30N 46°06' W 122°56'0 0.0
2017-Nov-18 03:00N 46°06' W 122°56'0 0.0
2017-Nov-18 02:30N 46°06' W 122°56'0 0.0
2017-Nov-18 02:00N 46°06' W 122°56'0 0.1
2017-Nov-18 01:15N 46°06' W 122°56'3 6.5
2017-Nov-18 00:47N 46°07' W 122°59'4 7.3
2017-Nov-18 00:16N 46°09' W 123°04'2 7.6
2017-Nov-18 00:01N 46°10' W 123°06'0 0.1
2017-Nov-17 23:30N 46°10' W 123°06'4 8.0
2017-Nov-17 23:01N 46°08' W 123°01'4 7.5
2017-Nov-17 22:30N 46°06' W 122°57'1 2.4
2017-Nov-17 22:01N 46°06' W 122°56'1 1.6
2017-Nov-17 21:31N 46°06' W 122°55'0 0.0
2017-Nov-17 21:01N 46°06' W 122°55'0 0.0
2017-Nov-17 20:31N 46°06' W 122°55'0 0.0
2017-Nov-17 20:01N 46°06' W 122°55'0 0.0
2017-Nov-17 19:30N 46°06' W 122°55'0 0.0
2017-Nov-17 19:00N 46°06' W 122°55'0 0.0
2017-Nov-17 18:31N 46°06' W 122°55'0 0.3
2017-Nov-17 18:00N 46°06' W 122°55'1 2.3
2017-Nov-17 17:31N 46°06' W 122°56'3 6.4
2017-Nov-17 17:00N 46°08' W 123°00'3 6.1
2017-Nov-17 16:30N 46°09' W 123°04'3 6.0
2017-Nov-17 16:01N 46°11' W 123°08'3 5.0
2017-Nov-17 15:31N 46°10' W 123°04'6 8.8
2017-Nov-17 14:48N 46°06' W 122°57'1 1.9
2017-Nov-17 14:15N 46°06' W 122°56'0 0.0
2017-Nov-17 14:00N 46°06' W 122°56'0 0.0
2017-Nov-17 13:30N 46°06' W 122°56'0 0.1
2017-Nov-17 12:59N 46°06' W 122°56'0 0.0
2017-Nov-17 12:30N 46°06' W 122°56'0 0.0
2017-Nov-17 12:00N 46°06' W 122°56'0 0.0
2017-Nov-17 11:30N 46°06' W 122°56'0 0.0
2017-Nov-17 11:01N 46°06' W 122°56'4 5.6
2017-Nov-17 10:17N 46°08' W 123°01'2 7.8
2017-Nov-17 10:01N 46°09' W 123°03'4 7.0
2017-Nov-17 09:31N 46°11' W 123°08'3 5.2
2017-Nov-17 08:52N 46°09' W 123°03'3 7.5
2017-Nov-17 08:30N 46°08' W 123°00'4 7.3
2017-Nov-17 08:01N 46°06' W 122°56'0 0.2
2017-Nov-17 07:31N 46°06' W 122°56'0 0.0
2017-Nov-17 07:00N 46°06' W 122°56'0 0.0
2017-Nov-17 06:30N 46°06' W 122°56'0 0.0
2017-Nov-17 06:00N 46°06' W 122°56'0 0.0
2017-Nov-17 05:30N 46°06' W 122°56'0 0.0
2017-Nov-17 05:00N 46°06' W 122°56'0 0.1
2017-Nov-17 04:31N 46°06' W 122°56'0 0.0
2017-Nov-17 04:01N 46°06' W 122°56'0 0.0
2017-Nov-17 03:28N 46°06' W 122°56'0 0.0
2017-Nov-17 03:00N 46°06' W 122°56'1 1.2
2017-Nov-17 02:30N 46°06' W 122°57'3 6.8
2017-Nov-17 02:00N 46°08' W 123°00'3 6.7
2017-Nov-17 01:30N 46°10' W 123°05'2 4.7
2017-Nov-17 01:01N 46°11' W 123°08'4 8.9
2017-Nov-17 00:30N 46°09' W 123°02'4 8.7
2017-Nov-17 00:00N 46°06' W 122°57'1 2.8
2017-Nov-16 23:31N 46°06' W 122°55'0 0.6
2017-Nov-16 23:01N 46°06' W 122°55'0 0.0
2017-Nov-16 22:31N 46°06' W 122°55'0 0.0
2017-Nov-16 22:00N 46°06' W 122°55'0 0.0
2017-Nov-16 21:30N 46°06' W 122°55'0 0.0
2017-Nov-16 21:00N 46°06' W 122°55'1 1.9
2017-Nov-16 20:31N 46°06' W 122°56'4 7.1
2017-Nov-16 20:01N 46°08' W 123°00'4 8.5
2017-Nov-16 19:30N 46°10' W 123°05'2 3.1
2017-Nov-16 19:00N 46°11' W 123°07'4 7.6
2017-Nov-16 18:30N 46°09' W 123°02'4 8.4
2017-Nov-16 18:00N 46°06' W 122°58'1 2.8
2017-Nov-16 17:30N 46°06' W 122°56'0 0.1
2017-Nov-16 17:01N 46°06' W 122°56'0 0.1
2017-Nov-16 16:30N 46°06' W 122°56'0 0.0
2017-Nov-16 16:00N 46°06' W 122°56'0 0.0
2017-Nov-16 15:30N 46°06' W 122°56'0 0.0
2017-Nov-16 15:00N 46°06' W 122°56'0 0.0
2017-Nov-16 14:30N 46°06' W 122°56'0 0.0
2017-Nov-16 14:00N 46°06' W 122°56'3 5.6
2017-Nov-16 13:30N 46°07' W 122°59'3 6.5
2017-Nov-16 13:00N 46°09' W 123°03'3 6.7
2017-Nov-16 12:31N 46°11' W 123°07'1 2.6
2017-Nov-16 12:00N 46°10' W 123°06'4 7.9
2017-Nov-16 11:30N 46°08' W 123°01'4 6.6
2017-Nov-16 10:53N 46°06' W 122°56'0 0.2
2017-Nov-16 10:30N 46°06' W 122°56'0 0.0
2017-Nov-16 10:00N 46°06' W 122°56'0 0.0
2017-Nov-16 09:30N 46°06' W 122°56'0 0.1
2017-Nov-16 09:00N 46°06' W 122°56'0 0.0
2017-Nov-16 08:31N 46°06' W 122°56'0 0.3
2017-Nov-16 08:00N 46°06' W 122°56'0 0.0
2017-Nov-16 07:30N 46°06' W 122°56'0 0.1
2017-Nov-16 07:00N 46°06' W 122°56'0 0.0
2017-Nov-16 06:30N 46°06' W 122°56'0 0.0
2017-Nov-16 06:00N 46°06' W 122°56'2 5.0
2017-Nov-16 05:30N 46°07' W 122°59'3 6.6
2017-Nov-16 05:01N 46°09' W 123°03'3 6.7
2017-Nov-16 04:30N 46°11' W 123°07'1 3.0
2017-Nov-16 04:00N 46°10' W 123°05'5 9.6
2017-Nov-16 03:30N 46°07' W 122°59'3 5.7
2017-Nov-16 03:00N 46°06' W 122°56'0 0.0
2017-Nov-16 02:30N 46°06' W 122°56'0 0.0
2017-Nov-16 02:00N 46°06' W 122°56'0 0.0
2017-Nov-16 01:30N 46°06' W 122°56'0 0.0
2017-Nov-16 01:01N 46°06' W 122°56'0 0.0
2017-Nov-16 00:30N 46°06' W 122°56'0 0.1
2017-Nov-16 00:00N 46°06' W 122°56'0 0.9
2017-Nov-15 23:30N 46°06' W 122°56'4 8.0
2017-Nov-15 23:00N 46°08' W 123°01'4 8.3
2017-Nov-15 22:30N 46°10' W 123°06'0 0.1
2017-Nov-15 22:01N 46°10' W 123°06'4 7.1
2017-Nov-15 21:29N 46°08' W 123°02'3 7.0
2017-Nov-15 21:01N 46°06' W 122°58'2 3.0
2017-Nov-15 20:30N 46°06' W 122°56'0 0.0
2017-Nov-15 20:00N 46°06' W 122°56'0 0.0
2017-Nov-15 19:20N 46°06' W 122°56'0 0.0
2017-Nov-15 18:53N 46°06' W 122°56'0 0.0
2017-Nov-15 18:30N 46°06' W 122°56'0 0.0
2017-Nov-15 18:00N 46°06' W 122°56'0 0.0
2017-Nov-15 17:29N 46°06' W 122°56'0 0.0
2017-Nov-15 16:59N 46°06' W 122°56'2 4.6
2017-Nov-15 16:26N 46°07' W 122°59'3 6.6
2017-Nov-15 16:00N 46°09' W 123°02'3 6.7
2017-Nov-15 15:30N 46°10' W 123°06'0 0.8
2017-Nov-15 15:00N 46°10' W 123°06'5 9.6
2017-Nov-15 14:31N 46°08' W 122°60'3 6.9
2017-Nov-15 14:01N 46°06' W 122°56'0 0.0
2017-Nov-15 13:30N 46°06' W 122°56'0 0.0
2017-Nov-15 13:00N 46°06' W 122°56'0 0.0
2017-Nov-15 12:29N 46°06' W 122°56'0 0.0
2017-Nov-15 12:01N 46°06' W 122°56'0 0.0
2017-Nov-15 11:31N 46°06' W 122°56'0 0.0
2017-Nov-15 11:01N 46°06' W 122°56'0 0.0
2017-Nov-15 10:30N 46°06' W 122°56'0 0.0
2017-Nov-15 10:00N 46°06' W 122°56'0 0.0
2017-Nov-15 09:31N 46°06' W 122°56'0 0.0
2017-Nov-15 09:00N 46°06' W 122°56'1 1.3
2017-Nov-15 08:30N 46°06' W 122°57'4 8.5
2017-Nov-15 08:00N 46°09' W 123°02'4 8.6
2017-Nov-15 07:31N 46°11' W 123°07'2 3.1
2017-Nov-15 06:57N 46°10' W 123°05'4 8.1
2017-Nov-15 06:31N 46°08' W 123°00'4 7.7
2017-Nov-15 06:01N 46°06' W 122°56'0 0.2
2017-Nov-15 05:31N 46°06' W 122°56'0 0.1
2017-Nov-15 05:00N 46°06' W 122°56'0 0.0
2017-Nov-15 04:31N 46°06' W 122°56'0 0.0
2017-Nov-15 04:00N 46°06' W 122°56'0 0.0
2017-Nov-15 03:30N 46°06' W 122°56'0 0.2
2017-Nov-15 03:01N 46°06' W 122°56'5 6.1
2017-Nov-15 02:16N 46°08' W 123°01'2 6.4
2017-Nov-15 02:01N 46°09' W 123°03'3 6.7
2017-Nov-15 01:30N 46°11' W 123°07'3 6.0
2017-Nov-15 01:00N 46°09' W 123°04'5 9.3
2017-Nov-15 00:30N 46°07' W 122°58'2 3.9
2017-Nov-15 00:00N 46°06' W 122°56'0 0.0
2017-Nov-14 23:30N 46°06' W 122°56'0 0.0
2017-Nov-14 23:00N 46°06' W 122°56'0 0.0
2017-Nov-14 22:30N 46°06' W 122°56'0 0.0
2017-Nov-14 22:00N 46°06' W 122°56'0 0.7
2017-Nov-14 21:30N 46°06' W 122°56'4 8.8
2017-Nov-14 21:00N 46°08' W 123°01'4 9.0
2017-Nov-14 20:30N 46°11' W 123°07'1 1.8
2017-Nov-14 20:01N 46°10' W 123°06'3 6.6
2017-Nov-14 19:30N 46°09' W 123°02'3 7.0
2017-Nov-14 19:01N 46°06' W 122°58'2 3.1
2017-Nov-14 18:30N 46°06' W 122°56'0 0.0
2017-Nov-14 18:00N 46°06' W 122°56'0 0.0
2017-Nov-14 17:31N 46°06' W 122°56'0 0.0
2017-Nov-14 17:01N 46°06' W 122°56'0 0.0
2017-Nov-14 16:30N 46°06' W 122°56'0 0.0
2017-Nov-14 16:01N 46°06' W 122°56'1 1.1
2017-Nov-14 15:30N 46°06' W 122°57'3 6.2
2017-Nov-14 15:00N 46°08' W 123°00'3 5.9
2017-Nov-14 14:30N 46°09' W 123°04'3 4.3
2017-Nov-14 13:48N 46°11' W 123°07'2 8.1
2017-Nov-14 13:30N 46°10' W 123°05'4 8.9
2017-Nov-14 13:00N 46°07' W 122°59'3 5.6
2017-Nov-14 12:30N 46°06' W 122°56'0 0.0
2017-Nov-14 12:00N 46°06' W 122°56'0 0.1
2017-Nov-14 11:30N 46°06' W 122°56'0 0.0
2017-Nov-14 11:00N 46°06' W 122°56'0 0.0
2017-Nov-14 10:31N 46°06' W 122°56'0 0.8
2017-Nov-14 10:00N 46°06' W 122°56'3 6.9
2017-Nov-14 09:30N 46°08' W 123°00'4 3.9
2017-Nov-14 08:24N 46°10' W 123°06'3 7.9
2017-Nov-14 08:00N 46°09' W 123°02'4 7.6
2017-Nov-14 07:30N 46°06' W 122°58'1 2.6
2017-Nov-14 07:00N 46°06' W 122°56'0 0.0
2017-Nov-14 06:30N 46°06' W 122°56'0 0.0
2017-Nov-14 06:00N 46°06' W 122°56'0 0.0
2017-Nov-14 05:30N 46°06' W 122°56'0 0.0
2017-Nov-14 05:00N 46°06' W 122°56'2 3.6
2017-Nov-14 04:30N 46°06' W 122°58'3 7.0
2017-Nov-14 04:00N 46°09' W 123°02'3 6.9
2017-Nov-14 03:31N 46°11' W 123°06'1 1.6
2017-Nov-14 03:00N 46°10' W 123°05'5 9.4
2017-Nov-14 02:30N 46°08' W 122°60'3 6.4
2017-Nov-14 02:00N 46°06' W 122°56'0 0.0
2017-Nov-14 01:31N 46°06' W 122°56'0 0.0
2017-Nov-14 01:00N 46°06' W 122°56'0 0.0
2017-Nov-14 00:31N 46°06' W 122°56'0 0.0
2017-Nov-14 00:00N 46°06' W 122°56'2 3.2
2017-Nov-13 23:30N 46°06' W 122°58'4 7.3
2017-Nov-13 23:00N 46°09' W 123°02'4 7.5
2017-Nov-13 22:30N 46°11' W 123°07'1 2.5
2017-Nov-13 21:58N 46°10' W 123°05'1 0.1
2017-Nov-13 02:00N 46°11' W 123°07'1 3.0
2017-Nov-13 01:30N 46°10' W 123°05'510.0
2017-Nov-13 01:00N 46°07' W 122°59'3 5.2
2017-Nov-13 00:31N 46°06' W 122°56'0 0.0
2017-Nov-13 00:00N 46°06' W 122°56'0 0.0
2017-Nov-12 23:30N 46°06' W 122°56'0 0.0
2017-Nov-12 23:00N 46°06' W 122°56'0 0.0
2017-Nov-12 22:31N 46°06' W 122°56'2 4.7
2017-Nov-12 22:00N 46°07' W 122°59'4 7.3
2017-Nov-12 21:31N 46°09' W 123°03'4 7.2
2017-Nov-12 20:57N 46°11' W 123°08'3 7.3
2017-Nov-12 20:30N 46°09' W 123°04'4 7.8
2017-Nov-12 20:01N 46°07' W 122°59'3 5.5
2017-Nov-12 19:31N 46°06' W 122°56'0 0.0
2017-Nov-12 19:01N 46°06' W 122°56'0 0.0
2017-Nov-12 18:30N 46°06' W 122°56'0 0.0
2017-Nov-12 18:00N 46°06' W 122°56'1 1.0
2017-Nov-12 17:31N 46°06' W 122°56'4 8.7
2017-Nov-12 17:00N 46°08' W 123°02'4 8.9
2017-Nov-12 16:30N 46°11' W 123°07'3 5.1
2017-Nov-12 16:01N 46°10' W 123°04'4 8.5
2017-Nov-12 15:30N 46°07' W 122°59'2 4.9
2017-Nov-12 15:00N 46°06' W 122°56'0 0.0
2017-Nov-12 14:30N 46°06' W 122°56'0 0.0
2017-Nov-12 14:01N 46°06' W 122°56'0 0.0
2017-Nov-12 13:30N 46°06' W 122°56'1 2.5
2017-Nov-12 13:01N 46°06' W 122°57'3 6.6
2017-Nov-12 12:30N 46°08' W 123°01'3 6.5
2017-Nov-12 12:00N 46°10' W 123°05'1 2.4
2017-Nov-12 11:30N 46°11' W 123°07'917.0
2017-Nov-12 11:00N 46°06' W 122°56'1 1.0
2017-Nov-12 10:31N 46°06' W 122°56'0 0.0
2017-Nov-12 10:00N 46°06' W 122°56'0 0.0
2017-Nov-12 09:30N 46°06' W 122°56'0 0.0
2017-Nov-12 09:01N 46°06' W 122°56'3 6.1
2017-Nov-12 08:30N 46°07' W 122°59'4 7.3
2017-Nov-12 07:56N 46°10' W 123°05'2 5.9
2017-Nov-12 07:31N 46°11' W 123°08'4 7.5
2017-Nov-12 07:01N 46°09' W 123°03'4 8.1
2017-Nov-12 06:30N 46°07' W 122°58'2 3.8
2017-Nov-12 06:00N 46°06' W 122°56'0 0.1
2017-Nov-12 05:30N 46°06' W 122°56'0 0.0
2017-Nov-12 05:00N 46°06' W 122°56'0 0.0
2017-Nov-12 04:30N 46°06' W 122°56'0 0.0
2017-Nov-12 04:00N 46°06' W 122°56'0 0.0
2017-Nov-12 03:31N 46°06' W 122°56'0 0.1
2017-Nov-12 03:00N 46°06' W 122°56'4 7.2
2017-Nov-12 02:30N 46°08' W 123°00'4 7.6
2017-Nov-12 02:01N 46°10' W 123°05'2 3.9
2017-Nov-12 01:31N 46°11' W 123°07'5 9.5
2017-Nov-12 01:00N 46°08' W 123°01'5 9.1
2017-Nov-12 00:31N 46°06' W 122°56'0 0.3
2017-Nov-12 00:00N 46°06' W 122°56'0 0.0
2017-Nov-11 23:30N 46°06' W 122°56'0 0.0
2017-Nov-11 23:00N 46°06' W 122°56'0 0.0
2017-Nov-11 22:30N 46°06' W 122°56'0 0.5
2017-Nov-11 22:00N 46°06' W 122°56'4 7.1
2017-Nov-11 21:30N 46°08' W 123°00'4 7.1
2017-Nov-11 21:01N 46°10' W 123°05'2 4.1
2017-Nov-11 20:30N 46°11' W 123°07'5 9.0
2017-Nov-11 20:00N 46°08' W 123°02'4 8.7
2017-Nov-11 19:30N 46°06' W 122°57'1 1.2
2017-Nov-11 19:00N 46°06' W 122°56'0 0.0
2017-Nov-11 18:30N 46°06' W 122°56'0 0.0
2017-Nov-11 18:01N 46°06' W 122°56'0 0.6
2017-Nov-11 17:30N 46°06' W 122°56'4 8.6
2017-Nov-11 17:01N 46°08' W 123°01'4 8.9
2017-Nov-11 16:31N 46°11' W 123°07'2 4.6
2017-Nov-11 16:00N 46°09' W 123°04'4 8.4
2017-Nov-11 15:30N 46°07' W 122°59'3 3.6
2017-Nov-11 14:48N 46°06' W 122°56'0 0.0
2017-Nov-11 14:22N 46°06' W 122°56'0 0.0
2017-Nov-11 14:01N 46°06' W 122°56'0 0.0
2017-Nov-11 13:30N 46°06' W 122°56'0 0.0
2017-Nov-11 13:00N 46°06' W 122°56'0 0.2
2017-Nov-11 12:30N 46°06' W 122°56'0 0.1
2017-Nov-11 12:01N 46°06' W 122°56'3 6.3
2017-Nov-11 11:30N 46°08' W 122°60'3 6.6
2017-Nov-11 11:01N 46°09' W 123°03'3 6.5
2017-Nov-11 10:30N 46°11' W 123°08'4 7.9
2017-Nov-11 10:00N 46°09' W 123°03'5 9.9
2017-Nov-11 09:31N 46°06' W 122°57'1 1.3
2017-Nov-11 08:45N 46°06' W 122°56'0 0.0
2017-Nov-11 08:31N 46°06' W 122°56'0 0.1
2017-Nov-11 08:00N 46°06' W 122°56'0 0.0
2017-Nov-11 07:31N 46°06' W 122°56'0 0.1
2017-Nov-11 07:01N 46°06' W 122°56'3 6.6
2017-Nov-11 06:30N 46°08' W 122°60'4 7.7
2017-Nov-11 05:56N 46°10' W 123°05'2 4.7
2017-Nov-11 05:30N 46°11' W 123°08'4 7.3
2017-Nov-11 05:00N 46°09' W 123°03'4 7.6
2017-Nov-11 04:31N 46°07' W 122°59'2 4.6
2017-Nov-11 04:01N 46°06' W 122°56'0 0.0
2017-Nov-11 03:31N 46°06' W 122°56'0 0.0
2017-Nov-11 03:01N 46°06' W 122°56'0 0.0
2017-Nov-11 02:30N 46°06' W 122°56'0 0.0
2017-Nov-11 02:01N 46°06' W 122°56'0 0.0
2017-Nov-11 01:30N 46°06' W 122°56'0 0.6
2017-Nov-11 01:00N 46°06' W 122°56'4 7.5
2017-Nov-11 00:30N 46°08' W 123°01'4 7.3
2017-Nov-11 00:01N 46°10' W 123°05'2 4.1
2017-Nov-10 23:30N 46°11' W 123°08'5 9.5
2017-Nov-10 23:01N 46°09' W 123°02'5 9.7
2017-Nov-10 22:31N 46°06' W 122°56'0 0.4
2017-Nov-10 22:00N 46°06' W 122°56'0 0.0
2017-Nov-10 21:30N 46°06' W 122°56'0 0.0
2017-Nov-10 21:01N 46°06' W 122°56'0 0.0
2017-Nov-10 20:30N 46°06' W 122°56'1 2.6
2017-Nov-10 20:01N 46°06' W 122°58'4 7.2
2017-Nov-10 19:31N 46°09' W 123°02'4 7.6
2017-Nov-10 19:00N 46°10' W 123°06'1 2.3
2017-Nov-10 18:30N 46°10' W 123°05'4 8.0
2017-Nov-10 18:00N 46°08' W 122°60'3 7.0
2017-Nov-10 17:30N 46°06' W 122°56'0 0.2
2017-Nov-10 17:00N 46°06' W 122°56'0 0.0
2017-Nov-10 16:30N 46°06' W 122°56'0 0.0
2017-Nov-10 16:00N 46°06' W 122°56'0 0.0
2017-Nov-10 15:30N 46°06' W 122°56'0 0.2
2017-Nov-10 15:01N 46°06' W 122°56'4 8.0
2017-Nov-10 14:30N 46°08' W 123°01'4 7.7
2017-Nov-10 14:01N 46°10' W 123°05'0 0.7
2017-Nov-10 13:30N 46°10' W 123°06'5 9.2
2017-Nov-10 13:00N 46°08' W 123°00'4 7.2
2017-Nov-10 12:30N 46°06' W 122°56'0 0.0
2017-Nov-10 12:01N 46°06' W 122°56'0 0.0
2017-Nov-10 11:30N 46°06' W 122°56'0 0.0
2017-Nov-10 11:00N 46°06' W 122°56'0 0.0
2017-Nov-10 10:30N 46°06' W 122°56'3 4.1
2017-Nov-10 09:42N 46°08' W 122°60'1 6.2
2017-Nov-10 09:30N 46°08' W 123°01'3 6.3
2017-Nov-10 09:00N 46°10' W 123°05'1 2.9
2017-Nov-10 08:31N 46°11' W 123°07'5 9.6
2017-Nov-10 08:00N 46°08' W 123°01'4 8.6
2017-Nov-10 07:30N 46°06' W 122°56'0 0.2
2017-Nov-10 07:00N 46°06' W 122°56'0 0.0
2017-Nov-10 06:30N 46°06' W 122°56'0 0.1
2017-Nov-10 06:01N 46°06' W 122°56'0 0.1
2017-Nov-10 05:30N 46°06' W 122°56'0 0.0
2017-Nov-10 05:00N 46°06' W 122°56'0 0.0
2017-Nov-10 04:30N 46°06' W 122°56'0 0.1
2017-Nov-10 04:00N 46°06' W 122°56'6 8.4
2017-Nov-10 03:16N 46°09' W 123°03'2 9.3
2017-Nov-10 03:00N 46°11' W 123°06'3 3.3
2017-Nov-10 02:11N 46°09' W 123°03'1 7.0
2017-Nov-10 02:01N 46°08' W 123°01'4 6.9
2017-Nov-10 01:30N 46°06' W 122°57'1 2.5
2017-Nov-10 01:01N 46°06' W 122°56'0 0.0
2017-Nov-10 00:30N 46°06' W 122°56'0 0.0
2017-Nov-10 00:00N 46°06' W 122°56'0 0.0
2017-Nov-09 23:30N 46°06' W 122°56'0 0.0
2017-Nov-09 23:01N 46°06' W 122°56'0 0.0
2017-Nov-09 22:29N 46°06' W 122°56'2 4.1
2017-Nov-09 22:00N 46°07' W 122°58'3 7.0
2017-Nov-09 21:30N 46°09' W 123°02'4 7.1
2017-Nov-09 21:00N 46°11' W 123°07'1 2.9
2017-Nov-09 20:30N 46°10' W 123°05'5 9.7
2017-Nov-09 20:00N 46°07' W 122°59'3 5.3
2017-Nov-09 19:30N 46°06' W 122°56'0 0.0
2017-Nov-09 19:00N 46°06' W 122°56'0 0.0
2017-Nov-09 18:30N 46°06' W 122°56'0 0.0
2017-Nov-09 18:01N 46°06' W 122°56'0 0.0
2017-Nov-09 17:30N 46°06' W 122°56'0 0.0
2017-Nov-09 17:01N 46°06' W 122°56'0 0.0
2017-Nov-09 16:31N 46°06' W 122°56'3 5.1
2017-Nov-09 16:00N 46°07' W 122°59'4 8.8
2017-Nov-09 15:30N 46°10' W 123°04'2 4.8
2017-Nov-09 15:00N 46°11' W 123°07'4 7.0
2017-Nov-09 14:30N 46°09' W 123°03'4 7.2
2017-Nov-09 14:00N 46°07' W 122°59'2 4.6
2017-Nov-09 13:30N 46°06' W 122°56'0 0.0
2017-Nov-09 13:00N 46°06' W 122°56'0 0.0
2017-Nov-09 12:23N 46°06' W 122°56'0 0.0
2017-Nov-09 12:01N 46°06' W 122°56'0 0.0
2017-Nov-09 11:21N 46°06' W 122°56'0 0.2
2017-Nov-09 11:01N 46°06' W 122°56'3 6.4
2017-Nov-09 10:31N 46°08' W 122°60'3 6.3
2017-Nov-09 10:01N 46°09' W 123°03'3 6.5
2017-Nov-09 09:30N 46°11' W 123°08'4 8.3
2017-Nov-09 09:01N 46°09' W 123°02'5 9.5
2017-Nov-09 08:30N 46°06' W 122°57'1 1.7
2017-Nov-09 08:01N 46°06' W 122°56'0 0.0
2017-Nov-09 07:31N 46°06' W 122°56'0 0.2
2017-Nov-09 07:00N 46°06' W 122°56'0 0.2
2017-Nov-09 06:30N 46°06' W 122°56'0 0.0
2017-Nov-09 05:53N 46°06' W 122°56'0 0.0
2017-Nov-09 05:30N 46°06' W 122°56'  

Dump ship's entire track history